Terminal Aerodrome Forecast
Issued by NWS

Home | Current Version | Previous Version | Graphics & Text | Print | Product List | Glossary On
Versions: 1 2 3 4 5 6 7 8 9 10 11 12 13 14
000
FTUS45 KGGW 150522
TAFGDV
TAF
KGDV 150522Z 1506/1606 09005KT P6SM VCSH BKN080
     FM150800 VRB05KT P6SM BKN080
     FM151000 30004KT P6SM BKN045
     FM151200 VRB03KT 1SM BR SCT002 BKN050
     FM151500 VRB05KT P6SM BKN100
     FM151800 33005KT P6SM BKN160
     FM152200 33008KT P6SM SCT110=

USA.gov is the U.S. government's official web portal to all federal, state and local government web resources and services.